Time;durP1;ratioP1;P1;durP2;ratioP2;P2;SDS_P1;SDS_P2;PMS_P1;PMS_P2;Temp;Humidity;BMP_temperature;BMP_pressure;BME280_temperature;BME280_humidity;BME280_pressure;Samples;Min_cycle;Max_cycle;Signal;HPM_P1;HPM_P2
2021/12/01 00:02:13;;;;;;;6.93;2.00;;;6.80;90.10;;;;;;6182275;28;20051;-81
2021/12/01 00:05:15;;;;;;;2.83;0.98;;;6.80;90.00;;;;;;6180850;28;20177;-82
2021/12/01 00:08:17;;;;;;;0.80;0.60;;;6.80;89.60;;;;;;6181565;28;20189;-82
2021/12/01 00:11:19;;;;;;;3.85;1.17;;;6.80;89.40;;;;;;6180507;28;20047;-80
2021/12/01 00:14:21;;;;;;;3.00;1.02;;;6.80;89.40;;;;;;6180639;28;20049;-82
2021/12/01 00:17:25;;;;;;;2.67;0.85;;;6.80;89.10;;;;;;6180258;28;20054;-82
2021/12/01 00:20:27;;;;;;;3.13;0.70;;;6.80;88.70;;;;;;6179892;28;20054;-82
2021/12/01 00:23:29;;;;;;;1.05;0.40;;;6.80;88.50;;;;;;6180296;28;20057;-82
2021/12/01 00:26:31;;;;;;;0.68;0.50;;;6.80;88.40;;;;;;6180846;28;20053;-82
2021/12/01 00:29:33;;;;;;;0.52;0.30;;;6.90;88.40;;;;;;6180056;28;20049;-81
2021/12/01 00:32:37;;;;;;;0.70;0.30;;;6.80;87.90;;;;;;6180807;28;20129;-81
2021/12/01 00:35:39;;;;;;;3.58;0.80;;;6.90;87.90;;;;;;6180824;28;20054;-80
2021/12/01 00:38:42;;;;;;;1.60;1.10;;;6.90;87.70;;;;;;6181051;28;20129;-78
2021/12/01 00:41:45;;;;;;;1.58;0.70;;;7.00;87.50;;;;;;6190614;28;20051;-78
2021/12/01 00:44:49;;;;;;;0.77;0.40;;;7.00;87.10;;;;;;6191623;28;20050;-79
2021/12/01 00:47:53;;;;;;;1.15;0.60;;;7.00;87.00;;;;;;6180684;28;20508;-82
2021/12/01 00:50:55;;;;;;;2.33;0.60;;;7.00;86.70;;;;;;6180979;28;20059;-80
2021/12/01 00:53:57;;;;;;;0.55;0.40;;;7.00;86.60;;;;;;6180597;28;20059;-82
2021/12/01 00:56:59;;;;;;;0.90;0.52;;;7.10;87.00;;;;;;6180222;28;20046;-80
2021/12/01 01:00:00;;;;;;;3.92;1.33;;;7.10;86.40;;;;;;6179514;28;20520;-80
2021/12/01 01:03:04;;;;;;;1.25;0.73;;;7.20;86.60;;;;;;6181568;28;20129;-81
2021/12/01 01:06:05;;;;;;;2.67;0.98;;;7.20;86.20;;;;;;6180590;28;20129;-83
2021/12/01 01:09:08;;;;;;;4.72;0.77;;;7.20;86.00;;;;;;6180986;28;20050;-81
2021/12/01 01:18:56;;;;;;;1.65;0.80;;;7.20;85.80;;;;;;6180920;28;20420;-82
2021/12/01 01:21:59;;;;;;;2.45;1.02;;;7.10;85.90;;;;;;6179075;28;20047;-82
2021/12/01 01:25:01;;;;;;;11.30;2.65;;;7.10;85.90;;;;;;6180126;28;20093;-81
2021/12/01 01:28:03;;;;;;;4.07;1.08;;;7.10;86.00;;;;;;6181835;28;20501;-83
2021/12/01 01:31:05;;;;;;;1.15;0.80;;;7.10;86.10;;;;;;6184076;28;20129;-82
2021/12/01 01:34:08;;;;;;;8.23;1.55;;;7.10;86.00;;;;;;6183455;28;20102;-82
2021/12/01 01:37:10;;;;;;;2.20;0.50;;;7.10;86.00;;;;;;6180288;28;20061;-80
2021/12/01 01:40:13;;;;;;;3.83;1.40;;;7.10;85.80;;;;;;6198881;28;20046;-83
2021/12/01 01:43:15;;;;;;;1.98;0.90;;;7.20;86.20;;;;;;6204006;28;20138;-83
2021/12/01 01:46:17;;;;;;;1.33;0.68;;;7.20;86.00;;;;;;6203836;28;20046;-82
2021/12/01 01:49:24;;;;;;;3.65;0.98;;;7.30;86.00;;;;;;6203470;28;20046;-83
2021/12/01 01:52:27;;;;;;;2.67;0.82;;;7.30;86.00;;;;;;6203128;28;20057;-83
2021/12/01 01:55:29;;;;;;;0.88;0.50;;;7.30;85.60;;;;;;6202889;28;20126;-81
2021/12/01 01:58:31;;;;;;;2.88;1.13;;;7.30;85.90;;;;;;6203514;28;20132;-82
2021/12/01 02:01:44;;;;;;;1.73;0.93;;;7.30;85.70;;;;;;6203246;28;20050;-81
2021/12/01 02:04:47;;;;;;;3.30;1.17;;;7.30;85.50;;;;;;6202631;28;20042;-81
2021/12/01 02:07:50;;;;;;;1.95;0.47;;;7.30;85.60;;;;;;6202779;28;20058;-82
2021/12/01 02:10:52;;;;;;;1.05;0.60;;;7.30;85.50;;;;;;6202332;28;20064;-83
2021/12/01 02:13:54;;;;;;;2.13;0.90;;;7.30;85.50;;;;;;6202205;28;20048;-84
2021/12/01 02:16:57;;;;;;;0.90;0.60;;;7.30;85.60;;;;;;6202512;28;20046;-82
2021/12/01 02:20:00;;;;;;;1.85;0.77;;;7.40;85.70;;;;;;6202469;28;20050;-83
2021/12/01 02:23:04;;;;;;;1.45;0.70;;;7.40;85.40;;;;;;6202686;28;20050;-82
2021/12/01 02:26:06;;;;;;;3.38;1.13;;;7.40;85.50;;;;;;6201331;28;20049;-82
2021/12/01 02:29:10;;;;;;;2.40;1.00;;;7.40;85.10;;;;;;6201580;28;20056;-82
2021/12/01 02:32:12;;;;;;;0.88;0.57;;;7.40;84.90;;;;;;6201183;28;20129;-82
2021/12/01 02:35:13;;;;;;;1.15;0.50;;;7.40;84.80;;;;;;6201262;28;20046;-83
2021/12/01 02:38:17;;;;;;;1.23;0.35;;;7.40;84.60;;;;;;6202591;28;20054;-82
2021/12/01 02:41:27;;;;;;;3.25;0.93;;;7.40;84.80;;;;;;6201172;28;20047;-81
2021/12/01 02:44:29;;;;;;;7.55;1.73;;;7.50;85.00;;;;;;6200631;28;20050;-83
2021/12/01 02:47:31;;;;;;;1.08;0.63;;;7.40;84.80;;;;;;6201955;28;20043;-83
2021/12/01 02:50:33;;;;;;;1.05;0.55;;;7.50;84.60;;;;;;6204963;28;20623;-83
2021/12/01 02:53:37;;;;;;;1.35;0.60;;;7.50;84.50;;;;;;6208664;28;20042;-83
2021/12/01 02:56:46;;;;;;;3.83;0.63;;;7.50;84.50;;;;;;6207569;28;20046;-81
2021/12/01 02:59:48;;;;;;;3.83;0.90;;;7.60;84.60;;;;;;6208265;28;20058;-82
2021/12/01 03:02:53;;;;;;;1.25;0.70;;;7.60;84.90;;;;;;6207773;28;20054;-82
2021/12/01 03:05:57;;;;;;;2.72;0.73;;;7.60;84.60;;;;;;6208793;28;20081;-83
2021/12/01 03:09:02;;;;;;;1.80;1.02;;;7.60;84.30;;;;;;6207465;28;20046;-81
2021/12/01 03:12:04;;;;;;;6.05;1.08;;;7.60;84.30;;;;;;6207392;28;20042;-82
2021/12/01 03:15:08;;;;;;;7.93;1.98;;;7.70;85.20;;;;;;6206725;28;20069;-83
2021/12/01 03:18:10;;;;;;;1.23;0.68;;;7.70;84.30;;;;;;6208512;28;20046;-83
2021/12/01 03:21:12;;;;;;;1.45;0.75;;;7.60;84.40;;;;;;6207418;28;20046;-83
2021/12/01 03:24:16;;;;;;;4.82;1.52;;;7.70;84.30;;;;;;6207361;28;20065;-81
2021/12/01 03:27:18;;;;;;;0.38;0.20;;;7.60;84.60;;;;;;6196360;28;20567;-82
2021/12/01 03:30:22;;;;;;;4.13;0.80;;;7.70;84.50;;;;;;6182517;28;20061;-82
2021/12/01 03:33:25;;;;;;;1.85;0.80;;;7.70;84.70;;;;;;6182047;28;20129;-82
2021/12/01 03:36:26;;;;;;;4.35;1.08;;;7.80;84.40;;;;;;6181677;28;20412;-82
2021/12/01 03:39:30;;;;;;;4.63;1.08;;;7.80;84.40;;;;;;6183289;28;20130;-83
2021/12/01 03:42:32;;;;;;;2.63;0.70;;;7.80;84.70;;;;;;6183783;28;20051;-82
2021/12/01 03:45:34;;;;;;;3.03;0.68;;;7.80;84.10;;;;;;6181816;28;20057;-82
2021/12/01 03:48:36;;;;;;;5.70;1.33;;;7.80;84.50;;;;;;6182271;28;20126;-82
2021/12/01 03:51:38;;;;;;;2.72;0.70;;;7.90;84.30;;;;;;6182501;28;20500;-85
2021/12/01 03:54:41;;;;;;;1.27;0.70;;;7.90;84.10;;;;;;6182686;28;20078;-84
2021/12/01 03:57:44;;;;;;;2.28;0.55;;;7.90;84.40;;;;;;6182281;28;20053;-83
2021/12/01 04:00:46;;;;;;;0.28;0.20;;;7.90;84.70;;;;;;6182669;28;20134;-83
2021/12/01 04:03:48;;;;;;;6.50;0.88;;;8.00;84.10;;;;;;6181611;28;20063;-84
2021/12/01 04:06:50;;;;;;;2.15;0.95;;;8.10;84.40;;;;;;6183091;28;20198;-83
2021/12/01 04:09:53;;;;;;;0.75;0.43;;;8.20;84.00;;;;;;6181716;28;20314;-84
2021/12/01 04:12:55;;;;;;;0.80;0.45;;;8.10;83.60;;;;;;6182216;28;20046;-84
2021/12/01 04:15:57;;;;;;;0.73;0.38;;;8.10;83.70;;;;;;6185681;28;20047;-84
2021/12/01 04:18:59;;;;;;;0.30;0.20;;;8.10;83.60;;;;;;6184386;28;20061;-83
2021/12/01 04:22:01;;;;;;;0.80;0.32;;;8.20;83.40;;;;;;6184540;28;20063;-83
2021/12/01 04:25:05;;;;;;;3.60;0.80;;;8.20;84.10;;;;;;6183288;28;20057;-84
2021/12/01 04:28:07;;;;;;;0.82;0.30;;;8.20;83.40;;;;;;6183881;28;20050;-81
2021/12/01 04:31:09;;;;;;;2.20;0.22;;;8.30;82.90;;;;;;6182857;28;20055;-82
2021/12/01 04:34:11;;;;;;;0.75;0.30;;;8.30;82.80;;;;;;6185979;28;20050;-82
2021/12/01 04:37:14;;;;;;;3.08;0.47;;;8.30;82.90;;;;;;6184475;28;20656;-83
2021/12/01 04:40:18;;;;;;;0.65;0.30;;;8.30;83.10;;;;;;6185283;28;20416;-83
2021/12/01 04:43:20;;;;;;;0.40;0.22;;;8.40;82.60;;;;;;6184207;28;20489;-83
2021/12/01 04:46:22;;;;;;;0.50;0.25;;;8.40;82.50;;;;;;6184580;28;20066;-84
2021/12/01 04:49:25;;;;;;;1.90;0.90;;;8.40;82.20;;;;;;6185711;28;20038;-83
2021/12/01 04:52:27;;;;;;;0.52;0.22;;;8.40;83.30;;;;;;6187021;28;20050;-83
2021/12/01 04:55:30;;;;;;;2.17;0.60;;;8.50;82.20;;;;;;6186941;28;20449;-83
2021/12/01 04:58:32;;;;;;;0.90;0.17;;;8.60;82.20;;;;;;6185406;28;20110;-83
2021/12/01 05:01:36;;;;;;;2.22;0.30;;;8.60;81.90;;;;;;6185530;28;20511;-84
2021/12/01 05:04:38;;;;;;;1.95;0.40;;;8.60;81.60;;;;;;6185545;28;20663;-83
2021/12/01 05:07:40;;;;;;;0.95;0.28;;;8.60;81.70;;;;;;6184836;28;20054;-83
2021/12/01 05:10:43;;;;;;;11.13;1.40;;;8.60;81.40;;;;;;6184517;28;20101;-83
2021/12/01 05:13:45;;;;;;;1.45;0.73;;;8.60;81.30;;;;;;6184363;28;20055;-83
2021/12/01 05:16:47;;;;;;;4.07;0.95;;;8.60;81.70;;;;;;6184692;28;20051;-83
2021/12/01 05:19:49;;;;;;;1.05;0.47;;;8.60;81.50;;;;;;6184322;28;20099;-83
2021/12/01 05:22:51;;;;;;;0.40;0.10;;;8.60;81.20;;;;;;6184993;28;20159;-83
2021/12/01 05:25:54;;;;;;;0.47;0.22;;;8.60;81.50;;;;;;6185080;28;20066;-83
2021/12/01 05:28:57;;;;;;;2.10;0.50;;;8.60;81.40;;;;;;6184970;28;20062;-83
2021/12/01 05:32:00;;;;;;;1.40;0.30;;;8.60;81.30;;;;;;6184356;28;20130;-83
2021/12/01 05:35:02;;;;;;;0.32;0.32;;;8.70;81.00;;;;;;6181804;28;20137;-83
2021/12/01 05:38:05;;;;;;;0.65;0.20;;;8.60;80.70;;;;;;6181472;28;20083;-83
2021/12/01 05:41:08;;;;;;;0.98;0.20;;;8.70;80.90;;;;;;6180577;28;20051;-84
2021/12/01 05:44:10;;;;;;;1.67;0.32;;;8.70;80.70;;;;;;6180010;28;20046;-83
2021/12/01 05:47:12;;;;;;;1.17;0.20;;;8.70;80.70;;;;;;6180703;28;20549;-84
2021/12/01 05:50:15;;;;;;;0.57;0.22;;;8.70;80.60;;;;;;6181266;28;20074;-83
2021/12/01 05:53:17;;;;;;;0.98;0.32;;;8.70;80.70;;;;;;6180533;28;20117;-84
2021/12/01 05:56:20;;;;;;;0.47;0.20;;;8.80;80.50;;;;;;6180453;28;20043;-84
2021/12/01 05:59:22;;;;;;;1.05;0.35;;;8.70;80.60;;;;;;6182098;28;21624;-84
2021/12/01 06:02:24;;;;;;;4.13;0.75;;;8.80;80.70;;;;;;6181659;28;20053;-83
2021/12/01 06:05:27;;;;;;;2.88;0.60;;;8.90;80.60;;;;;;6178569;28;20049;-83
2021/12/01 06:08:29;;;;;;;1.33;0.28;;;8.90;81.00;;;;;;6179958;28;20051;-82
2021/12/01 06:11:32;;;;;;;0.85;0.30;;;8.90;80.20;;;;;;6180179;28;20066;-83
2021/12/01 06:14:35;;;;;;;0.55;0.15;;;8.80;80.10;;;;;;6178836;28;20082;-82
2021/12/01 06:17:38;;;;;;;0.30;0.20;;;8.80;80.50;;;;;;6178716;28;20151;-82
2021/12/01 06:20:40;;;;;;;3.60;0.57;;;8.90;80.80;;;;;;6182847;28;20053;-81
2021/12/01 06:23:42;;;;;;;3.22;0.25;;;8.90;80.60;;;;;;6189354;28;20052;-79
2021/12/01 06:26:45;;;;;;;1.63;0.43;;;9.00;80.50;;;;;;6193299;28;20522;-80
2021/12/01 06:29:47;;;;;;;0.75;0.13;;;9.10;80.30;;;;;;6185807;28;20050;-80
2021/12/01 06:32:49;;;;;;;0.63;0.35;;;9.20;79.60;;;;;;6176497;28;20053;-81
2021/12/01 06:35:52;;;;;;;0.95;0.17;;;9.10;79.40;;;;;;6176505;28;20130;-79
2021/12/01 06:38:54;;;;;;;0.40;0.10;;;9.20;80.10;;;;;;6178195;28;20073;-79
2021/12/01 06:41:57;;;;;;;1.27;0.20;;;9.20;79.80;;;;;;6177080;28;20417;-81
2021/12/01 06:44:58;;;;;;;1.85;0.25;;;9.20;79.10;;;;;;6176943;28;20049;-78
2021/12/01 06:48:00;;;;;;;1.63;0.30;;;9.30;79.00;;;;;;6177668;28;20516;-80
2021/12/01 06:51:02;;;;;;;2.70;0.20;;;9.30;79.00;;;;;;6188290;28;20053;-80
2021/12/01 06:54:04;;;;;;;0.10;0.10;;;9.30;79.50;;;;;;6184693;28;20505;-79
2021/12/01 06:57:08;;;;;;;0.90;0.15;;;9.30;79.50;;;;;;6177005;28;20179;-79
2021/12/01 07:00:13;;;;;;;1.20;0.30;;;9.30;79.30;;;;;;6177509;28;20051;-81
2021/12/01 07:03:14;;;;;;;1.13;0.20;;;9.30;80.20;;;;;;6177411;28;20101;-81
2021/12/01 07:06:16;;;;;;;1.85;0.15;;;9.40;79.80;;;;;;6177766;28;20055;-81
2021/12/01 07:09:20;;;;;;;1.65;0.52;;;9.40;79.90;;;;;;6177539;28;20123;-81
2021/12/01 07:12:24;;;;;;;1.52;0.30;;;9.30;79.80;;;;;;6177526;28;20051;-80
2021/12/01 07:15:25;;;;;;;0.43;0.28;;;9.40;79.90;;;;;;6177296;28;20042;-81
2021/12/01 07:18:28;;;;;;;1.63;0.57;;;9.40;79.20;;;;;;6176707;28;20141;-80
2021/12/01 07:21:29;;;;;;;0.15;0.03;;;9.40;79.10;;;;;;6185501;28;20576;-81
2021/12/01 07:24:31;;;;;;;0.25;0.10;;;9.50;78.30;;;;;;6197165;28;20052;-82
2021/12/01 07:27:34;;;;;;;0.40;0.20;;;9.60;78.10;;;;;;6201997;28;20240;-81
2021/12/01 07:30:37;;;;;;;0.30;0.20;;;9.60;77.10;;;;;;6202235;28;20559;-79
2021/12/01 07:33:39;;;;;;;4.05;0.60;;;9.70;76.90;;;;;;6202724;28;20050;-80
2021/12/01 07:36:41;;;;;;;0.75;0.10;;;9.70;76.90;;;;;;6201421;28;20181;-80
2021/12/01 07:39:43;;;;;;;2.10;0.30;;;9.70;77.00;;;;;;6206756;28;20048;-81
2021/12/01 07:42:47;;;;;;;0.60;0.30;;;9.80;76.60;;;;;;6206900;28;20050;-81
2021/12/01 07:45:48;;;;;;;0.52;0.10;;;9.90;76.60;;;;;;6205940;28;20492;-81
2021/12/01 07:48:50;;;;;;;0.05;0.00;;;10.00;76.30;;;;;;6206233;28;20121;-80
2021/12/01 07:51:53;;;;;;;0.20;0.10;;;9.90;76.10;;;;;;6196290;28;20046;-81
2021/12/01 07:54:54;;;;;;;0.60;0.25;;;9.90;75.70;;;;;;6205281;28;20054;-80
2021/12/01 07:57:58;;;;;;;0.80;0.20;;;10.00;75.90;;;;;;6205048;28;20087;-79
2021/12/01 08:00:59;;;;;;;0.25;0.17;;;10.00;75.70;;;;;;6207395;28;20060;-82
2021/12/01 08:04:01;;;;;;;0.03;0.00;;;10.20;75.70;;;;;;6206337;28;20121;-80
2021/12/01 08:07:03;;;;;;;0.75;0.10;;;10.40;75.40;;;;;;6206183;28;20194;-80
2021/12/01 08:10:06;;;;;;;1.40;0.22;;;10.40;75.20;;;;;;6206244;28;20086;-81
2021/12/01 08:13:10;;;;;;;0.20;0.08;;;10.50;75.30;;;;;;6206473;28;20074;-81
2021/12/01 08:16:13;;;;;;;1.85;0.57;;;10.60;75.40;;;;;;6211076;28;20041;-81
2021/12/01 08:19:15;;;;;;;1.83;0.40;;;10.40;74.80;;;;;;6206780;28;20132;-82
2021/12/01 08:22:17;;;;;;;0.47;0.30;;;10.30;75.10;;;;;;6202565;28;20065;-82
2021/12/01 08:25:19;;;;;;;0.00;0.00;;;10.30;76.10;;;;;;6181491;28;20129;-81
2021/12/01 08:28:22;;;;;;;0.52;0.20;;;10.30;76.00;;;;;;6181611;28;20509;-81
2021/12/01 08:31:24;;;;;;;3.33;0.30;;;10.40;76.10;;;;;;6181728;28;20107;-81
2021/12/01 08:34:26;;;;;;;1.25;0.20;;;10.30;76.10;;;;;;6182074;28;20099;-80
2021/12/01 08:37:28;;;;;;;8.15;0.45;;;10.30;75.80;;;;;;6181604;28;20126;-80
2021/12/01 08:40:30;;;;;;;2.28;0.50;;;10.30;75.70;;;;;;6181169;28;20046;-81
2021/12/01 08:43:33;;;;;;;0.75;0.13;;;10.40;75.70;;;;;;6181414;28;20070;-81
2021/12/01 08:46:35;;;;;;;10.48;0.85;;;10.50;75.40;;;;;;6181964;28;20485;-81
2021/12/01 08:49:37;;;;;;;0.38;0.10;;;10.30;75.20;;;;;;6181789;28;20057;-81
2021/12/01 08:52:40;;;;;;;2.30;0.30;;;10.40;75.80;;;;;;6197064;28;20085;-81
2021/12/01 08:55:42;;;;;;;0.10;0.10;;;10.50;75.00;;;;;;6205889;28;20104;-82
2021/12/01 08:58:45;;;;;;;0.05;0.00;;;10.50;75.00;;;;;;6206199;28;20077;-81
2021/12/01 09:01:47;;;;;;;0.13;0.10;;;10.50;74.80;;;;;;6205395;28;20137;-81
2021/12/01 09:04:50;;;;;;;0.52;0.10;;;10.60;74.40;;;;;;6204767;28;20129;-81
2021/12/01 09:07:52;;;;;;;0.90;0.20;;;10.60;74.10;;;;;;6205391;28;20125;-81
2021/12/01 09:10:56;;;;;;;1.05;0.20;;;10.60;74.20;;;;;;6204300;28;20053;-81
2021/12/01 09:13:59;;;;;;;0.22;0.08;;;10.70;73.90;;;;;;6204826;28;20042;-81
2021/12/01 09:17:01;;;;;;;0.65;0.00;;;10.70;73.60;;;;;;6204528;28;20038;-81
2021/12/01 09:20:04;;;;;;;0.50;0.17;;;10.90;73.50;;;;;;6204688;28;20047;-81
2021/12/01 09:23:06;;;;;;;0.45;0.08;;;10.80;73.00;;;;;;6187619;28;20047;-81
2021/12/01 09:26:08;;;;;;;0.10;0.08;;;10.80;73.00;;;;;;6180570;28;20082;-81
2021/12/01 09:29:11;;;;;;;0.10;0.00;;;10.80;72.40;;;;;;6179615;28;20043;-81
2021/12/01 09:32:13;;;;;;;0.57;0.10;;;10.80;72.50;;;;;;6179758;28;20127;-81
2021/12/01 09:35:16;;;;;;;0.00;0.00;;;10.80;72.40;;;;;;6178690;28;20133;-79
2021/12/01 09:38:18;;;;;;;0.40;0.03;;;10.80;72.40;;;;;;6181116;28;20074;-79
2021/12/01 09:41:20;;;;;;;0.20;0.10;;;10.80;72.80;;;;;;6183138;28;20079;-79
2021/12/01 09:44:24;;;;;;;0.10;0.00;;;10.90;72.50;;;;;;6182514;28;20070;-80
2021/12/01 09:47:26;;;;;;;0.10;0.10;;;11.00;72.10;;;;;;6182260;28;20151;-79
2021/12/01 09:50:29;;;;;;;0.63;0.10;;;10.90;72.10;;;;;;6202422;23;20038;-81
2021/12/01 09:53:30;;;;;;;1.73;0.10;;;11.00;72.10;;;;;;6196561;28;20499;-81
2021/12/01 09:56:33;;;;;;;0.38;0.10;;;11.00;72.10;;;;;;6203954;28;20212;-82
2021/12/01 09:59:36;;;;;;;1.05;0.10;;;11.10;72.80;;;;;;6204651;28;20050;-82
2021/12/01 10:02:38;;;;;;;0.40;0.10;;;11.10;73.50;;;;;;6204865;28;20050;-82
2021/12/01 10:05:50;;;;;;;0.65;0.10;;;11.20;74.10;;;;;;6204543;28;20050;-82
2021/12/01 10:08:54;;;;;;;0.60;0.20;;;11.10;74.70;;;;;;6205148;28;20046;-82
2021/12/01 10:12:06;;;;;;;1.52;0.43;;;11.10;76.10;;;;;;6203991;28;20129;-81
2021/12/01 10:15:10;;;;;;;0.15;0.00;;;11.10;77.30;;;;;;6204389;28;20047;-81
2021/12/01 10:18:13;;;;;;;2.60;0.55;;;11.00;77.80;;;;;;6203726;28;20131;-81
2021/12/01 10:21:17;;;;;;;1.38;0.10;;;10.80;78.70;;;;;;6198501;28;20053;-80
2021/12/01 10:24:21;;;;;;;2.72;0.20;;;10.70;80.10;;;;;;6189133;28;20215;-81
2021/12/01 10:27:23;;;;;;;3.53;0.32;;;10.60;81.60;;;;;;6180149;28;20200;-80
2021/12/01 10:30:45;;;;;;;0.00;0.00;;;10.40;83.60;;;;;;6179935;28;20051;-80
2021/12/01 10:33:47;;;;;;;0.45;0.17;;;10.30;85.10;;;;;;6194236;28;20057;-80
2021/12/01 10:36:52;;;;;;;1.30;0.30;;;10.10;85.60;;;;;;6175624;28;20043;-81
2021/12/01 10:40:07;;;;;;;0.20;0.10;;;10.10;90.10;;;;;;6175149;28;20049;-81
2021/12/01 10:43:11;;;;;;;0.20;0.08;;;10.00;88.30;;;;;;6175666;28;20054;-85
2021/12/01 10:46:16;;;;;;;0.20;0.10;;;10.10;89.30;;;;;;6175416;28;20053;-81
2021/12/01 10:49:32;;;;;;;1.08;0.10;;;10.00;88.30;;;;;;6175084;28;20057;-80
2021/12/01 10:52:37;;;;;;;0.35;0.20;;;10.00;87.90;;;;;;6184110;28;20060;-82
2021/12/01 10:55:43;;;;;;;0.20;0.10;;;10.10;89.20;;;;;;6199456;28;20551;-80
2021/12/01 10:58:45;;;;;;;0.43;0.10;;;10.10;88.30;;;;;;6201795;28;20064;-82
2021/12/01 11:01:48;;;;;;;0.60;0.32;;;10.20;88.90;;;;;;6198939;28;20038;-80
2021/12/01 11:04:51;;;;;;;0.22;0.13;;;10.10;88.00;;;;;;6156327;28;20077;-81
2021/12/01 11:07:53;;;;;;;0.43;0.25;;;10.10;89.80;;;;;;6173174;28;20132;-81
2021/12/01 11:10:58;;;;;;;0.55;0.13;;;10.10;90.20;;;;;;6175298;28;20815;-83
2021/12/01 11:14:09;;;;;;;0.30;0.10;;;10.10;90.00;;;;;;6185042;28;20113;-82
2021/12/01 11:17:13;;;;;;;5.25;0.73;;;9.90;90.40;;;;;;6179655;28;20046;-82
2021/12/01 11:20:33;;;;;;;0.55;0.20;;;9.90;90.90;;;;;;6177225;28;20051;-81
2021/12/01 11:23:37;;;;;;;2.40;0.20;;;9.90;91.10;;;;;;6195097;28;20121;-82
2021/12/01 11:26:43;;;;;;;4.95;0.50;;;9.80;91.30;;;;;;6203166;28;20047;-82
2021/12/01 11:29:45;;;;;;;0.28;0.10;;;9.90;91.90;;;;;;6204317;28;20046;-82
2021/12/01 11:32:48;;;;;;;1.92;0.10;;;9.90;92.10;;;;;;6203151;28;20050;-81
2021/12/01 11:35:52;;;;;;;0.77;0.40;;;9.80;92.00;;;;;;6203181;28;20160;-81
2021/12/01 11:38:56;;;;;;;0.82;0.25;;;9.80;92.20;;;;;;6203809;28;20070;-81
2021/12/01 11:41:57;;;;;;;1.45;0.20;;;9.80;92.10;;;;;;6204125;28;20170;-81
2021/12/01 11:45:00;;;;;;;6.05;1.58;;;9.90;93.40;;;;;;6202734;28;20176;-81
2021/12/01 11:48:05;;;;;;;0.20;0.10;;;10.10;92.80;;;;;;6202494;28;20455;-80
2021/12/01 11:51:15;;;;;;;0.30;0.10;;;10.10;92.20;;;;;;6198779;28;20046;-80
2021/12/01 11:54:19;;;;;;;0.25;0.20;;;10.10;92.30;;;;;;6197750;28;20054;-81
2021/12/01 11:57:21;;;;;;;1.95;0.20;;;10.10;92.20;;;;;;6204490;28;20061;-82
2021/12/01 12:00:45;;;;;;;0.55;0.20;;;10.00;92.00;;;;;;6208033;28;20049;-81
2021/12/01 12:04:31;;;;;;;0.47;0.20;;;10.00;92.20;;;;;;6205574;28;20068;-81
2021/12/01 12:07:36;;;;;;;0.90;0.10;;;10.00;92.40;;;;;;6188064;28;20517;-82
2021/12/01 12:10:38;;;;;;;0.10;0.10;;;10.00;92.10;;;;;;6159015;28;20058;-82
2021/12/01 12:14:02;;;;;;;1.98;0.10;;;10.10;92.10;;;;;;6162502;28;20051;-82
2021/12/01 12:17:07;;;;;;;0.60;0.20;;;10.10;92.50;;;;;;6160198;28;20509;-83
2021/12/01 12:20:22;;;;;;;0.95;0.40;;;10.10;92.00;;;;;;6158562;28;20095;-82
2021/12/01 12:23:35;;;;;;;0.75;0.50;;;10.10;92.60;;;;;;6197036;28;20050;-83
2021/12/01 12:26:40;;;;;;;8.95;2.92;;;10.10;92.10;;;;;;6202995;28;20416;-82
2021/12/01 12:29:46;;;;;;;2.28;1.33;;;10.20;92.50;;;;;;6206154;28;20100;-82
2021/12/01 12:32:47;;;;;;;10.10;3.88;;;10.10;91.90;;;;;;6201833;28;20120;-82
2021/12/01 12:35:53;;;;;;;5.72;0.30;;;10.10;92.30;;;;;;6200583;28;20038;-82
2021/12/01 12:39:04;;;;;;;1.40;0.38;;;10.10;92.20;;;;;;6201479;28;20069;-81
2021/12/01 12:42:09;;;;;;;6.03;1.25;;;10.20;92.20;;;;;;6201804;28;20046;-82
2021/12/01 12:45:26;;;;;;;0.90;0.30;;;10.10;92.00;;;;;;6201107;28;20054;-82
2021/12/01 12:48:30;;;;;;;1.08;0.20;;;10.10;92.40;;;;;;6201660;28;20132;-83
2021/12/01 12:51:38;;;;;;;3.17;0.57;;;10.10;92.10;;;;;;6195182;28;20077;-82
2021/12/01 12:54:40;;;;;;;1.08;0.40;;;10.20;92.30;;;;;;6199803;28;20058;-81
2021/12/01 12:57:54;;;;;;;2.30;0.20;;;10.20;92.00;;;;;;6201810;28;20056;-82
2021/12/01 13:00:57;;;;;;;0.73;0.30;;;10.30;91.90;;;;;;6201211;28;20050;-82
2021/12/01 13:03:59;;;;;;;0.55;0.20;;;10.10;91.80;;;;;;6200801;28;20047;-82
2021/12/01 13:07:32;;;;;;;0.30;0.00;;;10.20;91.90;;;;;;6198654;28;20069;-82
2021/12/01 13:10:39;;;;;;;0.00;0.00;;;10.30;92.10;;;;;;6177586;28;20456;-83
2021/12/01 13:13:44;;;;;;;0.45;0.10;;;10.20;91.90;;;;;;6177379;28;20042;-82
2021/12/01 13:16:46;;;;;;;0.40;0.10;;;10.20;91.80;;;;;;6176061;28;20081;-82
2021/12/01 13:19:48;;;;;;;0.40;0.30;;;10.20;92.10;;;;;;6175080;28;20408;-82
2021/12/01 13:23:14;;;;;;;0.63;0.50;;;10.20;92.00;;;;;;6188902;28;20547;-82
2021/12/01 13:26:18;;;;;;;0.52;0.20;;;10.20;92.20;;;;;;6200564;28;20057;-82
2021/12/01 13:29:19;;;;;;;1.02;0.68;;;10.20;92.30;;;;;;6199396;28;20065;-82
2021/12/01 13:32:21;;;;;;;0.90;0.20;;;10.20;92.70;;;;;;6199248;28;20145;-82
2021/12/01 13:35:29;;;;;;;2.30;0.30;;;10.20;92.70;;;;;;6199134;28;20144;-82
2021/12/01 13:38:34;;;;;;;0.32;0.15;;;10.20;93.00;;;;;;6200571;28;20052;-81
2021/12/01 13:41:39;;;;;;;0.85;0.43;;;10.10;92.60;;;;;;6202624;28;20073;-81
2021/12/01 13:44:43;;;;;;;0.85;0.30;;;10.10;92.80;;;;;;6202096;28;20134;-82
2021/12/01 13:47:45;;;;;;;1.20;0.60;;;10.10;93.00;;;;;;6202243;28;20170;-81
2021/12/01 13:50:47;;;;;;;1.98;0.30;;;10.10;92.80;;;;;;6199091;28;20134;-80
2021/12/01 13:53:51;;;;;;;1.65;0.60;;;10.00;92.70;;;;;;6193059;28;20046;-81
2021/12/01 13:56:59;;;;;;;1.27;0.52;;;10.10;93.20;;;;;;6201751;28;20053;-81
2021/12/01 14:00:01;;;;;;;;;;;10.10;93.10;;;;;;6201546;28;20522;-81
2021/12/01 14:03:04;;;;;;;0.82;0.20;;;10.10;92.70;;;;;;6203355;28;19921;-81
2021/12/01 14:06:08;;;;;;;2.58;0.30;;;10.10;92.80;;;;;;6202046;28;20053;-82
2021/12/01 14:09:16;;;;;;;0.32;0.20;;;10.00;92.90;;;;;;6187687;28;20055;-82
2021/12/01 14:12:19;;;;;;;1.90;1.00;;;10.00;92.70;;;;;;6154475;28;20047;-82
2021/12/01 14:15:25;;;;;;;0.63;0.28;;;10.00;93.00;;;;;;6154903;28;20054;-81
2021/12/01 14:18:27;;;;;;;0.30;0.13;;;10.00;92.90;;;;;;6152152;29;20130;-82
2021/12/01 14:21:31;;;;;;;2.83;0.30;;;10.10;92.80;;;;;;6172978;28;20603;-81
2021/12/01 14:24:34;;;;;;;3.22;1.50;;;10.10;92.60;;;;;;6195778;28;20619;-80
2021/12/01 14:27:37;;;;;;;1.40;1.30;;;10.10;92.40;;;;;;6203463;28;20050;-82
2021/12/01 14:30:43;;;;;;;0.77;0.45;;;10.10;92.20;;;;;;6175885;28;20408;-83
2021/12/01 14:34:01;;;;;;;0.30;0.20;;;10.10;92.10;;;;;;6175523;28;20419;-80
2021/12/01 14:37:04;;;;;;;1.95;0.68;;;10.20;91.90;;;;;;6178501;28;20082;-82
2021/12/01 14:40:11;;;;;;;0.10;0.10;;;10.20;91.80;;;;;;6179521;28;20047;-82
2021/12/01 14:43:13;;;;;;;0.85;0.40;;;10.20;91.40;;;;;;6176634;28;20424;-81
2021/12/01 14:46:15;;;;;;;0.57;0.35;;;10.20;91.20;;;;;;6177229;28;20047;-81
2021/12/01 14:49:18;;;;;;;1.23;0.57;;;10.20;91.20;;;;;;6181024;28;20529;-82
2021/12/01 14:52:22;;;;;;;1.85;0.32;;;10.30;91.20;;;;;;6193408;28;20109;-82
2021/12/01 14:55:25;;;;;;;2.25;1.10;;;10.30;91.00;;;;;;6206810;28;20046;-82
2021/12/01 14:58:27;;;;;;;0.20;0.10;;;10.20;90.90;;;;;;6206892;28;20168;-82
2021/12/01 15:01:30;;;;;;;1.00;0.60;;;10.20;90.80;;;;;;6204952;28;20051;-81
2021/12/01 15:04:32;;;;;;;2.10;0.20;;;10.30;90.80;;;;;;6207595;28;20097;-80
2021/12/01 15:07:36;;;;;;;1.08;0.45;;;10.20;90.50;;;;;;6208900;28;20060;-81
2021/12/01 15:10:41;;;;;;;0.85;0.20;;;10.20;90.40;;;;;;6141330;28;20426;-82
2021/12/01 15:13:45;;;;;;;1.45;0.60;;;10.30;90.40;;;;;;6151971;28;20145;-83
2021/12/01 15:16:47;;;;;;;0.77;0.20;;;10.20;90.30;;;;;;6155749;28;20071;-83
2021/12/01 15:20:07;;;;;;;0.55;0.20;;;10.30;90.10;;;;;;6156231;28;20050;-81
2021/12/01 15:23:15;;;;;;;1.23;0.32;;;10.30;89.80;;;;;;6185317;28;20042;-80
2021/12/01 15:26:21;;;;;;;2.78;0.25;;;10.30;89.60;;;;;;6182649;28;20392;-81
2021/12/01 15:29:25;;;;;;;0.20;0.10;;;10.40;89.20;;;;;;6178988;28;20051;-82
2021/12/01 15:32:27;;;;;;;1.60;0.40;;;10.40;89.10;;;;;;6179292;28;20051;-82
2021/12/01 15:35:29;;;;;;;0.40;0.20;;;10.40;88.80;;;;;;6179608;28;20065;-82
2021/12/01 15:38:31;;;;;;;1.20;0.20;;;10.40;88.50;;;;;;6180113;28;20496;-81
2021/12/01 15:41:34;;;;;;;0.32;0.10;;;10.40;88.80;;;;;;6179598;28;20137;-81
2021/12/01 15:44:37;;;;;;;0.65;0.30;;;10.30;89.10;;;;;;6179030;28;20427;-80
2021/12/01 15:47:40;;;;;;;1.67;0.25;;;10.30;89.90;;;;;;6178998;28;20568;-81
2021/12/01 15:50:43;;;;;;;0.93;0.30;;;10.30;90.10;;;;;;6176259;28;20049;-81
2021/12/01 15:53:45;;;;;;;0.55;0.30;;;10.20;90.10;;;;;;6215500;23;20133;-81
2021/12/01 15:56:50;;;;;;;2.95;0.25;;;10.20;90.30;;;;;;6205424;28;20124;-81
2021/12/01 15:59:52;;;;;;;4.28;0.50;;;10.10;91.40;;;;;;6205979;28;20400;-83
2021/12/01 16:02:56;;;;;;;3.25;0.40;;;10.00;92.30;;;;;;6206422;28;20519;-79
2021/12/01 16:05:58;;;;;;;1.27;0.40;;;9.90;92.60;;;;;;6206605;28;20052;-79
2021/12/01 16:09:00;;;;;;;1.85;1.00;;;9.90;92.90;;;;;;6207125;28;20054;-79
2021/12/01 16:12:04;;;;;;;1.40;0.65;;;9.80;93.70;;;;;;6193902;28;20051;-79